Time;durP1;ratioP1;P1;durP2;ratioP2;P2;SDS_P1;SDS_P2;PMS_P1;PMS_P2;Temp;Humidity;BMP_temperature;BMP_pressure;BME280_temperature;BME280_humidity;BME280_pressure;Samples;Min_cycle;Max_cycle;Signal;HPM_P1;HPM_P2
2021/10/20 00:00:32;;;;;;;4.88;3.15;;;15.70;98.40;;;;;;5014541;28;20422;-77
2021/10/20 00:02:57;;;;;;;5.55;2.88;;;15.70;98.40;;;;;;5013968;28;20454;-77
2021/10/20 00:05:23;;;;;;;5.50;3.10;;;15.70;98.40;;;;;;5015153;28;20079;-78
2021/10/20 00:07:50;;;;;;;7.18;3.40;;;15.70;98.40;;;;;;5014851;28;20034;-78
2021/10/20 00:10:17;;;;;;;7.45;2.95;;;15.60;98.30;;;;;;5015171;28;20057;-78
2021/10/20 00:12:44;;;;;;;8.70;3.13;;;15.70;98.30;;;;;;5014454;28;20048;-77
2021/10/20 00:15:13;;;;;;;7.57;2.83;;;15.70;98.40;;;;;;5014007;28;20049;-78
2021/10/20 00:17:39;;;;;;;4.57;3.22;;;15.60;98.20;;;;;;5014263;28;20040;-77
2021/10/20 00:20:10;;;;;;;5.05;2.78;;;15.60;98.10;;;;;;5014988;28;20026;-78
2021/10/20 00:22:37;;;;;;;5.05;2.97;;;15.60;98.10;;;;;;5014323;28;20030;-77
2021/10/20 00:25:04;;;;;;;5.30;3.28;;;15.70;98.10;;;;;;5013527;28;20025;-77
2021/10/20 00:27:30;;;;;;;5.43;3.15;;;15.60;98.00;;;;;;5014289;28;20483;-76
2021/10/20 00:29:55;;;;;;;5.70;2.67;;;15.60;98.00;;;;;;5013471;28;20054;-78
2021/10/20 00:32:22;;;;;;;7.90;3.08;;;15.60;98.00;;;;;;5013391;28;20026;-77
2021/10/20 00:34:47;;;;;;;5.70;3.08;;;15.60;97.90;;;;;;5014016;28;20050;-77
2021/10/20 00:37:13;;;;;;;6.00;2.78;;;15.60;97.90;;;;;;5029879;28;20026;-78
2021/10/20 00:39:38;;;;;;;4.88;2.05;;;15.60;97.90;;;;;;5012753;28;20030;-77
2021/10/20 00:42:04;;;;;;;4.72;2.50;;;15.60;97.90;;;;;;5013315;28;20478;-78
2021/10/20 00:44:47;;;;;;;4.78;3.05;;;15.60;97.90;;;;;;5012835;28;20462;-77
2021/10/20 00:47:12;;;;;;;4.55;2.47;;;15.60;97.90;;;;;;5013262;28;20057;-77
2021/10/20 00:49:38;;;;;;;4.85;2.47;;;15.50;97.90;;;;;;5014161;28;20470;-77
2021/10/20 00:52:04;;;;;;;5.07;2.88;;;15.50;97.90;;;;;;5014556;28;20041;-77
2021/10/20 00:54:29;;;;;;;4.97;2.60;;;15.50;97.90;;;;;;5014282;28;20029;-77
2021/10/20 00:56:55;;;;;;;4.63;2.58;;;15.50;97.90;;;;;;5012163;28;20026;-78
2021/10/20 00:59:21;;;;;;;5.63;3.03;;;15.50;97.90;;;;;;5014353;28;20136;-78
2021/10/20 01:01:47;;;;;;;5.47;2.78;;;15.40;97.80;;;;;;5013246;28;20466;-77
2021/10/20 01:04:13;;;;;;;3.78;2.42;;;15.50;97.80;;;;;;5013443;28;20057;-78
2021/10/20 01:06:39;;;;;;;4.40;2.70;;;15.50;97.80;;;;;;5013228;28;20042;-78
2021/10/20 01:09:04;;;;;;;4.93;2.40;;;15.50;97.70;;;;;;5029408;28;20550;-78
2021/10/20 01:11:30;;;;;;;3.90;2.30;;;15.60;97.60;;;;;;5013807;28;20083;-78
2021/10/20 01:13:56;;;;;;;5.88;2.80;;;15.60;97.50;;;;;;5013329;28;20470;-78
2021/10/20 01:16:22;;;;;;;4.25;2.53;;;15.60;97.40;;;;;;5012615;28;20034;-79
2021/10/20 01:18:48;;;;;;;3.85;2.45;;;15.60;97.30;;;;;;5013258;28;20064;-78
2021/10/20 01:21:17;;;;;;;5.10;2.60;;;15.60;97.20;;;;;;5013826;28;20029;-79
2021/10/20 01:23:43;;;;;;;4.75;2.75;;;15.70;97.20;;;;;;5011859;28;20022;-79
2021/10/20 01:26:09;;;;;;;5.68;2.97;;;15.60;97.00;;;;;;5013670;28;20034;-78
2021/10/20 01:28:35;;;;;;;4.43;2.60;;;15.70;96.90;;;;;;5013171;28;20203;-78
2021/10/20 01:31:00;;;;;;;4.90;2.70;;;15.70;96.80;;;;;;5013941;28;20057;-78
2021/10/20 01:33:26;;;;;;;4.40;2.53;;;15.70;96.80;;;;;;5012254;28;20068;-78
2021/10/20 01:35:52;;;;;;;4.72;2.42;;;15.70;96.70;;;;;;5011360;28;20056;-78
2021/10/20 01:38:17;;;;;;;6.45;2.63;;;15.80;96.70;;;;;;5013573;28;20383;-78
2021/10/20 01:40:43;;;;;;;5.38;2.50;;;15.80;96.60;;;;;;5012857;28;20045;-78
2021/10/20 01:43:09;;;;;;;4.80;2.58;;;15.80;96.50;;;;;;5013181;28;20052;-78
2021/10/20 01:45:34;;;;;;;5.95;2.85;;;15.90;96.50;;;;;;5013465;28;20038;-79
2021/10/20 01:48:00;;;;;;;4.70;2.70;;;15.90;96.40;;;;;;5013083;28;20028;-78
2021/10/20 01:50:26;;;;;;;4.78;2.88;;;15.90;96.20;;;;;;5013006;28;20022;-78
2021/10/20 01:52:52;;;;;;;6.63;2.72;;;15.90;96.10;;;;;;5012642;28;20018;-78
2021/10/20 01:55:17;;;;;;;3.78;2.53;;;15.90;96.00;;;;;;5011969;28;20145;-78
2021/10/20 01:57:44;;;;;;;6.68;2.67;;;15.90;96.00;;;;;;5012442;28;20136;-78
2021/10/20 02:00:10;;;;;;;4.38;2.50;;;15.90;95.90;;;;;;5011878;28;20076;-78
2021/10/20 02:02:37;;;;;;;5.20;2.47;;;15.90;95.80;;;;;;5011552;28;20088;-78
2021/10/20 02:05:05;;;;;;;3.88;2.40;;;16.00;95.80;;;;;;5027955;28;20022;-79
2021/10/20 02:07:30;;;;;;;5.53;3.08;;;16.00;95.70;;;;;;5012907;28;20041;-79
2021/10/20 02:09:56;;;;;;;5.30;2.65;;;16.00;95.50;;;;;;5011093;28;20244;-78
2021/10/20 02:12:22;;;;;;;5.38;2.80;;;16.00;95.40;;;;;;5013062;28;20026;-78
2021/10/20 02:14:48;;;;;;;3.88;2.28;;;16.00;95.40;;;;;;5010970;28;20014;-78
2021/10/20 02:17:13;;;;;;;4.63;2.45;;;16.00;95.40;;;;;;5012942;28;20038;-78
2021/10/20 02:19:39;;;;;;;5.60;2.90;;;16.00;95.40;;;;;;5027235;28;20041;-78
2021/10/20 02:22:06;;;;;;;5.57;2.80;;;16.00;95.30;;;;;;5012751;28;20477;-77
2021/10/20 02:24:32;;;;;;;4.60;2.67;;;16.00;95.30;;;;;;5011412;28;20018;-78
2021/10/20 02:26:58;;;;;;;5.13;2.55;;;16.00;95.30;;;;;;5010712;28;20742;-77
2021/10/20 02:29:23;;;;;;;4.43;2.53;;;16.00;95.20;;;;;;5012831;28;20072;-78
2021/10/20 02:31:49;;;;;;;5.70;3.10;;;16.00;95.20;;;;;;5027299;28;20087;-79
2021/10/20 02:34:20;;;;;;;4.43;2.85;;;16.00;95.00;;;;;;5012667;28;20026;-80
2021/10/20 02:36:46;;;;;;;4.70;2.17;;;16.00;95.30;;;;;;5010358;28;20079;-80
2021/10/20 02:39:12;;;;;;;4.72;2.70;;;16.00;95.00;;;;;;5011194;28;20048;-79
2021/10/20 02:41:38;;;;;;;5.32;2.60;;;16.00;95.00;;;;;;5012242;28;20022;-78
2021/10/20 02:44:04;;;;;;;5.32;2.55;;;16.00;95.00;;;;;;5010557;28;20022;-78
2021/10/20 02:46:30;;;;;;;4.32;2.88;;;16.00;95.00;;;;;;5012393;28;20026;-78
2021/10/20 02:48:56;;;;;;;4.72;2.47;;;16.00;95.00;;;;;;5011797;28;20022;-78
2021/10/20 02:51:23;;;;;;;4.22;2.45;;;15.90;95.00;;;;;;5011169;28;20501;-79
2021/10/20 02:53:48;;;;;;;5.47;2.40;;;15.90;95.10;;;;;;5011473;28;20347;-78
2021/10/20 02:56:15;;;;;;;4.85;3.00;;;15.90;95.00;;;;;;5010901;28;20101;-79
2021/10/20 02:58:41;;;;;;;4.85;2.53;;;15.90;95.00;;;;;;5011809;28;20066;-77
2021/10/20 03:01:07;;;;;;;6.20;2.40;;;15.90;95.00;;;;;;5010971;28;20088;-77
2021/10/20 03:03:33;;;;;;;3.10;2.05;;;15.90;95.00;;;;;;5010991;28;20421;-78
2021/10/20 03:05:58;;;;;;;4.60;2.60;;;15.90;95.00;;;;;;5012027;28;20025;-78
2021/10/20 03:08:24;;;;;;;5.50;2.65;;;15.90;95.00;;;;;;4998771;28;20509;-78
2021/10/20 03:10:50;;;;;;;4.43;2.55;;;15.90;95.00;;;;;;4992121;28;20451;-78
2021/10/20 03:13:15;;;;;;;4.80;2.22;;;15.80;95.00;;;;;;4992516;28;20022;-78
2021/10/20 03:15:41;;;;;;;3.25;2.17;;;15.80;95.00;;;;;;4992455;28;20028;-78
2021/10/20 03:18:06;;;;;;;4.35;2.33;;;15.80;95.00;;;;;;5007359;28;20061;-77
2021/10/20 03:20:32;;;;;;;5.00;2.67;;;15.90;95.00;;;;;;4991232;28;20069;-77
2021/10/20 03:22:58;;;;;;;4.90;2.70;;;15.90;94.90;;;;;;4991406;28;20450;-77
2021/10/20 03:25:23;;;;;;;5.32;2.75;;;15.90;95.00;;;;;;4991166;28;20431;-77
2021/10/20 03:27:50;;;;;;;7.68;2.58;;;15.90;94.90;;;;;;4994343;28;20030;-78
2021/10/20 03:30:20;;;;;;;6.25;3.10;;;15.90;94.90;;;;;;4996347;28;20126;-77
2021/10/20 03:32:46;;;;;;;5.15;2.70;;;15.90;94.90;;;;;;5010767;28;20038;-77
2021/10/20 03:35:13;;;;;;;4.32;2.47;;;15.90;94.90;;;;;;4995569;28;20356;-77
2021/10/20 03:37:40;;;;;;;5.07;2.63;;;15.90;94.80;;;;;;4995716;28;20431;-79
2021/10/20 03:40:07;;;;;;;4.50;2.30;;;15.90;94.80;;;;;;5011628;28;20538;-78
2021/10/20 03:42:33;;;;;;;5.53;2.70;;;15.90;94.80;;;;;;5003631;28;20022;-78
2021/10/20 03:44:58;;;;;;;6.28;2.83;;;15.90;94.80;;;;;;4998635;28;20459;-77
2021/10/20 03:47:25;;;;;;;5.22;3.15;;;15.90;94.70;;;;;;5004691;28;20153;-78
2021/10/20 03:49:51;;;;;;;5.13;2.72;;;15.90;94.80;;;;;;5004764;28;20072;-77
2021/10/20 03:52:18;;;;;;;5.20;2.95;;;15.90;94.80;;;;;;5013166;28;20478;-79
2021/10/20 03:54:44;;;;;;;6.30;3.05;;;15.90;94.70;;;;;;5013306;28;20123;-78
2021/10/20 03:57:11;;;;;;;4.75;2.70;;;16.00;94.70;;;;;;5014318;28;20045;-79
2021/10/20 03:59:37;;;;;;;5.60;2.55;;;16.00;94.70;;;;;;5014949;28;20072;-79
2021/10/20 04:02:03;;;;;;;5.65;2.55;;;16.00;94.70;;;;;;5014075;28;20026;-78
2021/10/20 04:04:29;;;;;;;6.03;2.85;;;15.90;94.70;;;;;;5015361;28;20069;-79
2021/10/20 04:06:54;;;;;;;5.78;2.97;;;15.90;94.70;;;;;;5013001;28;20049;-79
2021/10/20 04:09:20;;;;;;;6.28;2.50;;;15.90;94.70;;;;;;5015024;28;20442;-79
2021/10/20 04:11:46;;;;;;;6.05;3.10;;;15.90;94.70;;;;;;5003135;28;20375;-76
2021/10/20 04:14:12;;;;;;;5.22;2.80;;;15.90;94.70;;;;;;5001798;28;20026;-77
2021/10/20 04:16:38;;;;;;;7.07;3.10;;;15.90;94.70;;;;;;4999352;28;20036;-78
2021/10/20 04:19:04;;;;;;;4.93;2.55;;;15.90;94.70;;;;;;4998804;28;20054;-78
2021/10/20 04:21:30;;;;;;;5.07;2.88;;;15.90;94.70;;;;;;4995254;28;20046;-78
2021/10/20 04:23:55;;;;;;;5.30;2.97;;;15.90;94.70;;;;;;4997406;28;20030;-77
2021/10/20 04:26:21;;;;;;;5.90;3.20;;;15.90;94.70;;;;;;5029633;28;20083;-77
2021/10/20 04:28:47;;;;;;;5.68;3.00;;;15.90;94.70;;;;;;5014259;28;20472;-76
2021/10/20 04:31:13;;;;;;;5.22;2.83;;;15.90;94.70;;;;;;5013244;28;20033;-77
2021/10/20 04:33:38;;;;;;;5.03;2.72;;;15.90;94.70;;;;;;5027552;28;20018;-76
2021/10/20 04:36:04;;;;;;;6.60;3.30;;;15.90;94.70;;;;;;5007272;28;20146;-76
2021/10/20 04:38:30;;;;;;;6.28;2.95;;;15.90;94.60;;;;;;5002691;28;20363;-77
2021/10/20 04:40:55;;;;;;;4.93;2.97;;;16.00;94.60;;;;;;4996362;28;20049;-77
2021/10/20 04:43:21;;;;;;;5.53;2.88;;;16.00;94.60;;;;;;4995149;28;20102;-77
2021/10/20 04:45:47;;;;;;;5.05;2.58;;;16.00;94.50;;;;;;5012638;28;20052;-77
2021/10/20 04:48:13;;;;;;;5.70;3.08;;;16.00;94.50;;;;;;5011306;28;20026;-75
2021/10/20 04:50:38;;;;;;;6.57;3.33;;;16.00;94.40;;;;;;5021586;28;20030;-76
2021/10/20 04:53:04;;;;;;;5.55;2.90;;;16.00;94.40;;;;;;5007923;28;20106;-76
2021/10/20 04:55:31;;;;;;;5.80;2.97;;;16.10;94.30;;;;;;4999153;28;20026;-75
2021/10/20 04:57:57;;;;;;;4.93;2.80;;;16.20;94.30;;;;;;5002574;28;20489;-75
2021/10/20 05:00:24;;;;;;;6.20;2.85;;;16.20;94.30;;;;;;4994864;28;20101;-75
2021/10/20 05:02:50;;;;;;;4.65;2.88;;;16.20;94.20;;;;;;5013937;28;20064;-76
2021/10/20 05:05:15;;;;;;;4.82;3.10;;;16.30;94.20;;;;;;5009186;28;20049;-75
2021/10/20 05:07:49;;;;;;;4.97;2.78;;;16.30;94.20;;;;;;5011846;28;20466;-76
2021/10/20 05:10:16;;;;;;;8.68;3.88;;;16.30;94.10;;;;;;5029130;28;20425;-76
2021/10/20 05:12:42;;;;;;;6.03;3.20;;;16.30;94.20;;;;;;5014070;28;20033;-76
2021/10/20 05:15:08;;;;;;;5.97;3.15;;;16.30;94.20;;;;;;5013322;28;20366;-76
2021/10/20 05:17:33;;;;;;;5.45;3.50;;;16.30;94.20;;;;;;5028990;28;20459;-75
2021/10/20 05:19:59;;;;;;;5.65;3.10;;;16.30;94.10;;;;;;5013326;28;20525;-75
2021/10/20 05:22:25;;;;;;;6.10;3.40;;;16.30;94.10;;;;;;5014026;28;20026;-75
2021/10/20 05:24:50;;;;;;;7.03;3.78;;;16.30;94.10;;;;;;5013549;28;20120;-75
2021/10/20 05:27:16;;;;;;;6.15;3.08;;;16.20;94.10;;;;;;5013679;28;20176;-75
2021/10/20 05:29:42;;;;;;;6.15;3.35;;;16.20;94.10;;;;;;5013845;28;20087;-76
2021/10/20 05:32:07;;;;;;;7.10;3.30;;;16.20;94.10;;;;;;5013108;28;20084;-76
2021/10/20 05:34:33;;;;;;;6.40;3.38;;;16.20;94.10;;;;;;5012153;28;20045;-76
2021/10/20 05:36:59;;;;;;;6.03;3.50;;;16.10;94.20;;;;;;5012774;28;20038;-75
2021/10/20 05:39:25;;;;;;;6.72;3.50;;;16.10;94.10;;;;;;5012190;28;20121;-75
2021/10/20 05:41:50;;;;;;;7.05;3.40;;;16.10;94.10;;;;;;5012351;28;20117;-75
2021/10/20 05:44:17;;;;;;;6.18;3.40;;;16.10;94.10;;;;;;5012809;28;20485;-75
2021/10/20 05:46:43;;;;;;;9.07;3.50;;;16.10;94.10;;;;;;5013336;28;20029;-75
2021/10/20 05:49:09;;;;;;;6.72;3.83;;;16.10;94.10;;;;;;5011317;28;20036;-75
2021/10/20 05:51:34;;;;;;;6.05;3.50;;;16.10;94.10;;;;;;5011906;28;20021;-76
2021/10/20 05:54:00;;;;;;;6.53;3.47;;;16.10;94.10;;;;;;5012716;28;20385;-76
2021/10/20 05:56:26;;;;;;;8.15;3.20;;;16.10;94.00;;;;;;5013198;28;20027;-76
2021/10/20 05:58:51;;;;;;;6.10;3.05;;;16.10;94.30;;;;;;5028311;28;20466;-75
2021/10/20 06:01:19;;;;;;;5.30;2.80;;;16.10;94.00;;;;;;5011200;28;20105;-76
2021/10/20 06:03:44;;;;;;;6.43;3.08;;;16.10;94.10;;;;;;5013118;28;20105;-75
2021/10/20 06:06:10;;;;;;;5.45;3.25;;;16.10;94.00;;;;;;5012392;28;20447;-75
2021/10/20 06:08:36;;;;;;;7.68;3.97;;;16.10;94.10;;;;;;5012978;28;20038;-74
2021/10/20 06:11:01;;;;;;;6.35;3.50;;;16.20;94.00;;;;;;5027515;28;20382;-75
2021/10/20 06:13:27;;;;;;;5.78;3.35;;;16.20;93.90;;;;;;5011573;28;20033;-75
2021/10/20 06:15:53;;;;;;;5.97;3.35;;;16.20;93.80;;;;;;5027881;28;20022;-76
2021/10/20 06:18:18;;;;;;;5.55;3.28;;;16.30;93.80;;;;;;5012116;28;20026;-76
2021/10/20 06:20:44;;;;;;;6.75;3.10;;;16.30;93.70;;;;;;5012540;28;20026;-76
2021/10/20 06:23:09;;;;;;;9.55;3.35;;;16.30;93.80;;;;;;5010945;28;20026;-78
2021/10/20 06:25:36;;;;;;;5.50;2.80;;;16.30;93.80;;;;;;5011464;28;20118;-77
2021/10/20 06:28:02;;;;;;;6.03;3.38;;;16.30;93.80;;;;;;5027364;28;20402;-76
2021/10/20 06:30:27;;;;;;;8.48;3.50;;;16.30;93.70;;;;;;5012826;28;20018;-77
2021/10/20 06:32:53;;;;;;;6.53;3.47;;;16.30;93.60;;;;;;5027752;28;20020;-76
2021/10/20 06:35:19;;;;;;;7.80;3.20;;;16.30;93.60;;;;;;5011568;28;20513;-76
2021/10/20 06:37:51;;;;;;;6.07;3.35;;;16.40;93.50;;;;;;5012195;28;20030;-76
2021/10/20 06:40:17;;;;;;;6.95;3.30;;;16.40;93.50;;;;;;5012048;28;20076;-77
2021/10/20 06:42:43;;;;;;;5.18;2.75;;;16.40;93.40;;;;;;5012465;28;20029;-76
2021/10/20 06:45:09;;;;;;;6.05;3.38;;;16.40;93.40;;;;;;5011829;28;20025;-76
2021/10/20 06:47:35;;;;;;;5.78;3.20;;;16.40;93.40;;;;;;5011149;28;20124;-76
2021/10/20 06:50:00;;;;;;;5.55;3.20;;;16.40;93.40;;;;;;5026989;28;20109;-76
2021/10/20 06:52:26;;;;;;;5.47;3.40;;;16.40;93.40;;;;;;5012214;28;20546;-76
2021/10/20 06:54:52;;;;;;;5.45;3.13;;;16.40;93.50;;;;;;5012129;28;20386;-77
2021/10/20 06:57:18;;;;;;;7.20;3.33;;;16.40;93.40;;;;;;5026948;28;20260;-76
2021/10/20 06:59:44;;;;;;;5.40;3.03;;;16.50;93.40;;;;;;5012020;28;20022;-76
2021/10/20 07:02:09;;;;;;;6.03;3.30;;;16.40;93.50;;;;;;5009744;28;20041;-75
2021/10/20 07:04:35;;;;;;;7.43;3.08;;;16.40;93.50;;;;;;5011048;28;20084;-77
2021/10/20 07:07:01;;;;;;;5.82;3.20;;;16.40;93.50;;;;;;5026943;28;20478;-76
2021/10/20 07:09:27;;;;;;;6.03;3.22;;;16.40;93.50;;;;;;5012305;28;20459;-76
2021/10/20 07:11:52;;;;;;;6.15;3.38;;;16.40;93.50;;;;;;5012558;28;20026;-76
2021/10/20 07:14:18;;;;;;;6.90;3.33;;;16.40;93.60;;;;;;5011589;28;20245;-75
2021/10/20 07:16:44;;;;;;;3.80;2.25;;;16.40;93.60;;;;;;5011804;28;20065;-76
2021/10/20 07:19:09;;;;;;;6.13;3.20;;;16.50;93.60;;;;;;5011551;28;20058;-75
2021/10/20 07:21:36;;;;;;;4.75;3.00;;;16.50;93.60;;;;;;5012356;28;20022;-77
2021/10/20 07:24:03;;;;;;;6.75;3.35;;;16.50;93.60;;;;;;5010160;28;20022;-78
2021/10/20 07:26:29;;;;;;;4.90;2.83;;;16.50;93.60;;;;;;5027292;28;20078;-75
2021/10/20 07:28:55;;;;;;;5.75;3.15;;;16.60;93.60;;;;;;5027140;28;20060;-75
2021/10/20 07:31:20;;;;;;;5.70;3.05;;;16.60;93.60;;;;;;5010040;28;20057;-77
2021/10/20 07:33:46;;;;;;;8.02;3.72;;;16.60;93.60;;;;;;5010623;28;20112;-76
2021/10/20 07:36:12;;;;;;;5.25;3.10;;;16.70;93.50;;;;;;5011405;28;20046;-75
2021/10/20 07:38:38;;;;;;;7.03;3.72;;;16.70;93.50;;;;;;5011920;28;20026;-77
2021/10/20 07:41:03;;;;;;;5.65;3.05;;;16.80;93.50;;;;;;5011796;28;20026;-77
2021/10/20 07:43:29;;;;;;;5.95;3.67;;;16.70;93.60;;;;;;5011809;28;20239;-78
2021/10/20 07:45:56;;;;;;;7.75;3.38;;;16.70;93.70;;;;;;5011906;28;20370;-76
2021/10/20 07:48:22;;;;;;;6.80;3.47;;;16.70;93.80;;;;;;5010907;28;20153;-76
2021/10/20 07:50:47;;;;;;;5.97;3.60;;;16.70;93.80;;;;;;5011853;28;20391;-76
2021/10/20 07:53:13;;;;;;;5.45;3.03;;;16.60;93.80;;;;;;5011258;28;20360;-76
2021/10/20 07:55:39;;;;;;;6.68;3.22;;;16.60;93.90;;;;;;5010634;28;20021;-75
2021/10/20 07:58:04;;;;;;;6.32;3.38;;;16.70;94.00;;;;;;5011133;28;20060;-75
2021/10/20 08:00:30;;;;;;;4.85;3.00;;;16.60;94.00;;;;;;5011663;28;20188;-75
2021/10/20 08:02:56;;;;;;;6.43;3.47;;;16.60;94.10;;;;;;5011401;28;20026;-76
2021/10/20 08:05:23;;;;;;;6.00;3.38;;;16.60;94.20;;;;;;5011102;28;20041;-76
2021/10/20 08:07:49;;;;;;;6.25;3.67;;;16.50;94.30;;;;;;5011401;28;20401;-76
2021/10/20 08:10:21;;;;;;;6.30;3.38;;;16.50;94.40;;;;;;5026202;28;20026;-75
2021/10/20 08:12:47;;;;;;;8.23;3.88;;;16.50;94.50;;;;;;5011396;28;20026;-78
2021/10/20 08:15:15;;;;;;;4.90;3.15;;;16.50;94.50;;;;;;5029786;28;20172;-78
2021/10/20 08:17:41;;;;;;;6.05;3.55;;;16.50;94.60;;;;;;5015131;28;20065;-78
2021/10/20 08:20:09;;;;;;;7.00;3.03;;;16.50;94.60;;;;;;5014536;28;20113;-76
2021/10/20 08:22:38;;;;;;;6.05;3.58;;;16.50;94.60;;;;;;5030393;28;20085;-78
2021/10/20 08:25:05;;;;;;;7.00;3.42;;;16.50;94.70;;;;;;5014708;28;20091;-78
2021/10/20 08:27:31;;;;;;;6.70;3.58;;;16.50;94.70;;;;;;5014895;28;20029;-76
2021/10/20 08:29:57;;;;;;;6.55;3.88;;;16.60;94.80;;;;;;5014673;28;20075;-77
2021/10/20 08:32:22;;;;;;;7.78;3.58;;;16.60;94.80;;;;;;5014348;28;20029;-77
2021/10/20 08:34:50;;;;;;;8.82;4.78;;;16.60;94.90;;;;;;5014538;28;20050;-77
2021/10/20 08:37:17;;;;;;;6.90;4.15;;;16.50;95.00;;;;;;5014120;28;20026;-77
2021/10/20 08:39:42;;;;;;;6.03;3.40;;;16.50;95.10;;;;;;5030139;28;20347;-77
2021/10/20 08:42:08;;;;;;;7.78;3.75;;;16.50;95.20;;;;;;5014192;28;20481;-77
2021/10/20 08:44:34;;;;;;;8.75;3.78;;;16.50;95.30;;;;;;5014932;28;20096;-77
2021/10/20 08:47:00;;;;;;;5.55;3.47;;;16.50;95.30;;;;;;5029754;28;20030;-76
2021/10/20 08:49:26;;;;;;;6.63;3.92;;;16.50;95.30;;;;;;5029140;28;20101;-77
2021/10/20 08:51:52;;;;;;;8.18;4.07;;;16.50;95.40;;;;;;5014378;28;20494;-77
2021/10/20 08:54:18;;;;;;;7.55;4.10;;;16.50;95.40;;;;;;5014111;28;20053;-78
2021/10/20 08:56:45;;;;;;;6.97;4.55;;;16.50;95.40;;;;;;5014532;28;20109;-76
2021/10/20 08:59:12;;;;;;;7.20;4.13;;;16.50;95.40;;;;;;5012464;28;20100;-76
2021/10/20 09:01:38;;;;;;;7.47;4.20;;;16.60;95.50;;;;;;5029841;28;20336;-78
2021/10/20 09:04:08;;;;;;;6.80;4.10;;;16.60;95.50;;;;;;5014386;28;20021;-77
2021/10/20 09:06:34;;;;;;;5.70;3.55;;;16.70;95.40;;;;;;5029364;28;20026;-78
2021/10/20 09:09:04;;;;;;;12.30;4.55;;;16.80;95.30;;;;;;5014551;28;20463;-78
2021/10/20 09:11:34;;;;;;;7.05;4.05;;;17.00;95.00;;;;;;5013656;28;20057;-76
2021/10/20 09:14:07;;;;;;;7.53;4.20;;;17.00;94.90;;;;;;5014363;28;20093;-77
2021/10/20 09:16:35;;;;;;;9.18;3.75;;;17.20;94.80;;;;;;5012717;28;20470;-77
2021/10/20 09:19:15;;;;;;;8.00;3.65;;;17.20;94.70;;;;;;5029478;28;20545;-76
2021/10/20 09:21:47;;;;;;;7.25;4.10;;;17.30;94.70;;;;;;5029305;28;20060;-77
2021/10/20 09:24:13;;;;;;;10.80;4.00;;;17.30;94.60;;;;;;5011551;28;20203;-78
2021/10/20 09:26:38;;;;;;;6.50;4.15;;;17.30;94.60;;;;;;5028943;28;20515;-76
2021/10/20 09:29:25;;;;;;;7.07;3.67;;;17.20;94.60;;;;;;5028579;28;20466;-77
2021/10/20 09:31:51;;;;;;;5.97;3.90;;;17.30;94.70;;;;;;5013763;28;20032;-77
2021/10/20 09:34:17;;;;;;;5.38;3.50;;;17.30;94.60;;;;;;5013230;28;20032;-77
2021/10/20 09:36:43;;;;;;;7.15;3.65;;;17.30;94.60;;;;;;5028254;28;20470;-78
2021/10/20 09:39:11;;;;;;;8.07;4.47;;;17.40;94.60;;;;;;5028497;28;20534;-78
2021/10/20 09:41:38;;;;;;;8.25;4.53;;;17.40;94.50;;;;;;5012074;28;20454;-78
2021/10/20 09:44:08;;;;;;;7.95;4.28;;;17.50;94.40;;;;;;5013225;28;20413;-77
2021/10/20 09:46:41;;;;;;;7.93;4.57;;;17.50;94.30;;;;;;5028098;28;20034;-77
2021/10/20 09:49:33;;;;;;;7.95;4.80;;;17.50;94.20;;;;;;5013747;28;20014;-78
2021/10/20 09:51:59;;;;;;;8.63;4.05;;;17.60;94.20;;;;;;5011668;28;20125;-78
2021/10/20 09:54:25;;;;;;;7.93;5.05;;;17.60;94.10;;;;;;5012799;28;20439;-77
2021/10/20 09:57:00;;;;;;;8.45;4.55;;;17.60;94.10;;;;;;5013260;28;20040;-78
2021/10/20 09:59:27;;;;;;;8.57;3.70;;;17.60;94.10;;;;;;5011406;28;20044;-75
2021/10/20 10:01:53;;;;;;;8.63;4.40;;;17.60;94.10;;;;;;5013015;28;20381;-75
2021/10/20 10:04:19;;;;;;;8.23;4.78;;;17.70;94.10;;;;;;5012497;28;20030;-75
2021/10/20 10:06:46;;;;;;;7.32;4.35;;;17.70;94.00;;;;;;5028168;28;20113;-76
2021/10/20 10:09:13;;;;;;;9.55;4.68;;;17.70;94.00;;;;;;5012139;28;20057;-76
2021/10/20 10:11:46;;;;;;;6.43;4.43;;;17.80;93.90;;;;;;5013082;28;20486;-76
2021/10/20 10:14:14;;;;;;;7.57;4.15;;;17.90;93.80;;;;;;5012191;28;20072;-76
2021/10/20 10:16:42;;;;;;;10.00;5.57;;;18.10;93.70;;;;;;5011518;28;20040;-76
2021/10/20 10:19:10;;;;;;;7.00;4.13;;;18.20;93.50;;;;;;5011404;28;20025;-76
2021/10/20 10:21:42;;;;;;;8.68;4.80;;;18.10;93.50;;;;;;5010711;28;20026;-76
2021/10/20 10:24:17;;;;;;;7.43;4.60;;;18.20;93.60;;;;;;5012823;28;20026;-76
2021/10/20 10:27:02;;;;;;;7.13;4.40;;;18.10;93.60;;;;;;5012736;28;20037;-76
2021/10/20 10:29:29;;;;;;;7.88;4.22;;;18.10;93.70;;;;;;5010663;28;20413;-76
2021/10/20 10:32:01;;;;;;;6.72;4.28;;;18.00;93.70;;;;;;5027709;28;20026;-76
2021/10/20 10:34:36;;;;;;;9.65;5.00;;;17.90;93.80;;;;;;5011516;28;20028;-75
2021/10/20 10:37:04;;;;;;;6.88;4.20;;;17.80;93.80;;;;;;5010319;28;20121;-75
2021/10/20 10:39:31;;;;;;;6.97;3.95;;;17.80;93.90;;;;;;5026991;28;20065;-75
2021/10/20 10:41:59;;;;;;;7.32;4.38;;;17.70;94.00;;;;;;5012399;28;20056;-76
2021/10/20 10:44:30;;;;;;;8.20;4.47;;;17.70;94.00;;;;;;5010530;28;20014;-76
2021/10/20 10:47:18;;;;;;;6.90;4.18;;;17.70;94.10;;;;;;5012525;28;20034;-76
2021/10/20 10:49:52;;;;;;;8.60;4.88;;;17.70;94.00;;;;;;5011153;28;20026;-76
2021/10/20 10:52:36;;;;;;;6.03;3.90;;;17.70;94.30;;;;;;5011746;28;20033;-75
2021/10/20 10:55:18;;;;;;;6.15;4.07;;;17.70;94.00;;;;;;5012333;28;20488;-76
2021/10/20 10:57:58;;;;;;;7.30;4.40;;;17.80;94.00;;;;;;5027245;28;20017;-75
2021/10/20 11:00:24;;;;;;;6.10;3.67;;;17.80;93.90;;;;;;5011736;28;20029;-75
2021/10/20 11:03:13;;;;;;;7.22;4.03;;;17.80;94.00;;;;;;5010792;28;20042;-75
2021/10/20 11:05:47;;;;;;;6.95;4.43;;;17.80;94.00;;;;;;5011635;28;20041;-76
2021/10/20 11:08:13;;;;;;;6.40;3.88;;;17.80;94.00;;;;;;5027340;28;20049;-76
2021/10/20 11:10:40;;;;;;;8.68;4.38;;;17.80;93.90;;;;;;5026759;28;20466;-76
2021/10/20 11:13:06;;;;;;;7.93;3.90;;;17.80;93.80;;;;;;5012184;28;20026;-75
2021/10/20 11:15:33;;;;;;;8.25;3.88;;;17.80;93.90;;;;;;5011636;28;20048;-75
2021/10/20 11:17:59;;;;;;;6.72;3.85;;;17.80;93.90;;;;;;5010802;28;20061;-76
2021/10/20 11:20:28;;;;;;;7.88;4.03;;;17.80;93.90;;;;;;5011090;28;20148;-75
2021/10/20 11:23:02;;;;;;;5.38;3.40;;;17.80;93.90;;;;;;5012210;28;20018;-75
2021/10/20 11:25:28;;;;;;;6.07;3.90;;;17.80;93.80;;;;;;5011419;28;20021;-75
2021/10/20 11:27:58;;;;;;;5.70;3.60;;;17.90;93.80;;;;;;5010836;28;20029;-75
2021/10/20 11:30:27;;;;;;;8.35;4.40;;;17.90;93.80;;;;;;5011302;28;20037;-75
2021/10/20 11:32:53;;;;;;;7.10;3.90;;;17.90;93.80;;;;;;5011959;28;20029;-75
2021/10/20 11:35:24;;;;;;;9.13;3.90;;;17.90;93.80;;;;;;5025996;28;20056;-75
2021/10/20 11:37:55;;;;;;;5.68;3.50;;;17.90;93.70;;;;;;5011985;28;20038;-75
2021/10/20 11:40:21;;;;;;;7.53;4.40;;;18.00;93.70;;;;;;5026455;28;20029;-75
2021/10/20 11:42:47;;;;;;;7.72;4.55;;;18.00;93.70;;;;;;5011855;28;20455;-75
2021/10/20 11:45:13;;;;;;;8.10;4.35;;;18.00;93.70;;;;;;5026983;28;20030;-76
2021/10/20 11:47:41;;;;;;;5.93;3.22;;;18.10;93.60;;;;;;5011771;28;20043;-76
2021/10/20 11:50:14;;;;;;;6.70;3.92;;;18.10;93.60;;;;;;5030828;28;20033;-76
2021/10/20 11:52:40;;;;;;;7.90;3.80;;;18.00;93.40;;;;;;5030214;28;20030;-75
2021/10/20 11:55:07;;;;;;;6.30;3.70;;;18.10;93.40;;;;;;5015656;28;20014;-76
2021/10/20 11:57:33;;;;;;;6.75;3.80;;;18.10;93.50;;;;;;5013467;28;20038;-76
2021/10/20 11:59:59;;;;;;;6.35;4.15;;;18.10;93.50;;;;;;5014386;28;20099;-76
2021/10/20 12:02:32;;;;;;;7.05;4.93;;;18.10;93.50;;;;;;5013459;28;20025;-76
2021/10/20 12:04:59;;;;;;;6.35;3.53;;;18.00;93.50;;;;;;5015293;28;20022;-75
2021/10/20 12:07:29;;;;;;;7.38;3.47;;;18.00;93.60;;;;;;5014640;28;20069;-76
2021/10/20 12:09:59;;;;;;;6.72;4.00;;;18.00;93.70;;;;;;5014092;28;20022;-76
2021/10/20 12:12:25;;;;;;;6.90;3.63;;;17.90;93.70;;;;;;5014515;28;20108;-76
2021/10/20 12:14:58;;;;;;;7.22;3.33;;;17.90;93.70;;;;;;5030324;28;20050;-76
2021/10/20 12:17:28;;;;;;;5.53;2.95;;;17.90;93.70;;;;;;5029787;28;20033;-77
2021/10/20 12:19:59;;;;;;;9.90;4.07;;;17.90;93.70;;;;;;5030411;28;20117;-76
2021/10/20 12:22:27;;;;;;;5.45;3.80;;;17.90;93.70;;;;;;5029780;28;20029;-77
2021/10/20 12:24:55;;;;;;;5.90;3.63;;;17.90;93.70;;;;;;5013633;28;20026;-76
2021/10/20 12:27:22;;;;;;;7.75;3.83;;;17.90;93.70;;;;;;5029801;28;20026;-76
2021/10/20 12:29:51;;;;;;;5.72;3.17;;;17.90;93.80;;;;;;5014875;28;20029;-75
2021/10/20 12:32:22;;;;;;;8.18;3.55;;;17.90;93.80;;;;;;5014823;28;20117;-75
2021/10/20 12:35:03;;;;;;;6.90;3.40;;;17.90;93.90;;;;;;5030058;28;20025;-75
2021/10/20 12:37:41;;;;;;;6.75;4.03;;;17.80;94.00;;;;;;5029201;28;20478;-75
2021/10/20 12:40:22;;;;;;;6.18;3.40;;;17.80;94.00;;;;;;5014766;28;20034;-75
2021/10/20 12:42:55;;;;;;;;;;;17.90;94.00;;;;;;5030139;28;20485;-76
2021/10/20 12:45:23;;;;;;;6.85;4.00;;;17.90;94.00;;;;;;5029517;28;19986;-75
2021/10/20 12:47:55;;;;;;;6.57;3.67;;;17.90;93.90;;;;;;5014510;28;20097;-76